Accueil
METAR-TAF:

METAR-TAF

Aéroports :

Brighton, Angleterre

Aéroport de Shoreham

latitude: 50-50N, longitude: 000-17W, altitude: 2 m

Observation

Le bulletin a été fait il y a 11 heures et 48 minutes, à 18:50 UTC
Vent 15 kt de sud/sud-ouest
Température 15°C
Humidité 72%
Pression 1009 hPa
Visibilité 10 km ou plus
Nuages épars à une hauteur de 2000 ft

METAR: EGKA 201850Z 21015KT 9999 SCT020 15/10 Q1009

Heure: 07:38 (06:38 UTC)

Prévision

Le bulletin a été fait il y a 16 heures et 33 minutes, à 14:05 UTC
Prévision valable du 20 à 15 UTC au 20 à 19 UTC
Vent 17 kt de ouest/sud-ouest
Visibilité 10 km ou plus
Nuages épars à une hauteur de 3000 ft
Temporairement
du 20 à 15 UTC au 20 à 19 UTC
Vent 20 kt de sud-ouest avec des rafales jusqu'à 30 kt

TAF: EGKA 201405Z 2015/2019 24017KT 9999 SCT030 TEMPO 2015/2019 23020G30KT

Observations et prévisions météorologiques de plus de 4000 aéroports (messages METAR et TAF).

Les stations disponibles sont représentées par des disques jaunes et rouges sur la carte.

Passer la souris dessus pour voir le nom de la station.

Cliquer dessus pour voir les observations et prévisions météorologiques.

Pour changer de carte: cliquez sur les boutons verts avec une croix noire pour zoomer, sur le bouton vert avec un tiret pour effectuer un zoom arrière, ou sur les flèches vertes pour les cartes adjacentes.


METAR-TAF: